sensor_id;sensor_type;location;lat;lon;timestamp;pressure;altitude;pressure_sealevel;temperature;humidity
17230;BME280;8731;50.364;8.958;2023-04-02T00:03:12;99184.69;;;11.07;100.00
17230;BME280;8731;50.364;8.958;2023-04-02T00:07:34;99191.31;;;11.05;100.00
17230;BME280;8731;50.364;8.958;2023-04-02T00:12:12;99196.63;;;10.96;100.00
17230;BME280;8731;50.364;8.958;2023-04-02T00:16:39;99194.66;;;11.04;100.00
17230;BME280;8731;50.364;8.958;2023-04-02T00:21:09;99204.28;;;10.96;100.00
17230;BME280;8731;50.364;8.958;2023-04-02T00:25:37;99209.47;;;10.98;100.00
17230;BME280;8731;50.364;8.958;2023-04-02T00:30:02;99222.22;;;10.98;100.00
17230;BME280;8731;50.364;8.958;2023-04-02T00:34:29;99221.56;;;11.00;100.00
17230;BME280;8731;50.364;8.958;2023-04-02T00:38:57;99228.31;;;11.00;100.00
17230;BME280;8731;50.364;8.958;2023-04-02T00:43:25;99230.97;;;11.01;100.00
17230;BME280;8731;50.364;8.958;2023-04-02T00:47:51;99238.94;;;10.94;100.00
17230;BME280;8731;50.364;8.958;2023-04-02T00:52:17;99231.75;;;11.00;100.00
17230;BME280;8731;50.364;8.958;2023-04-02T00:56:45;99241.81;;;10.99;100.00
17230;BME280;8731;50.364;8.958;2023-04-02T01:01:16;99250.00;;;10.95;100.00
17230;BME280;8731;50.364;8.958;2023-04-02T01:05:41;99248.63;;;10.88;100.00
17230;BME280;8731;50.364;8.958;2023-04-02T01:10:28;99247.34;;;10.93;100.00
17230;BME280;8731;50.364;8.958;2023-04-02T01:15:24;99253.97;;;10.91;100.00
17230;BME280;8731;50.364;8.958;2023-04-02T01:20:18;99257.69;;;10.85;100.00
17230;BME280;8731;50.364;8.958;2023-04-02T01:24:57;99265.75;;;10.79;100.00
17230;BME280;8731;50.364;8.958;2023-04-02T01:29:23;99272.97;;;10.85;100.00
17230;BME280;8731;50.364;8.958;2023-04-02T01:33:49;99272.56;;;10.90;100.00
17230;BME280;8731;50.364;8.958;2023-04-02T01:38:16;99274.56;;;10.94;100.00
17230;BME280;8731;50.364;8.958;2023-04-02T01:42:51;99283.75;;;10.92;100.00
17230;BME280;8731;50.364;8.958;2023-04-02T01:47:21;99286.19;;;10.91;100.00
17230;BME280;8731;50.364;8.958;2023-04-02T01:51:50;99287.84;;;10.90;100.00
17230;BME280;8731;50.364;8.958;2023-04-02T01:56:17;99298.94;;;10.91;100.00
17230;BME280;8731;50.364;8.958;2023-04-02T02:00:44;99299.56;;;10.88;100.00
17230;BME280;8731;50.364;8.958;2023-04-02T02:05:14;99306.44;;;10.89;100.00
17230;BME280;8731;50.364;8.958;2023-04-02T02:09:41;99313.97;;;10.66;100.00
17230;BME280;8731;50.364;8.958;2023-04-02T02:14:08;99311.25;;;10.74;100.00
17230;BME280;8731;50.364;8.958;2023-04-02T02:18:35;99325.63;;;10.74;100.00
17230;BME280;8731;50.364;8.958;2023-04-02T02:23:00;99332.03;;;10.69;100.00
17230;BME280;8731;50.364;8.958;2023-04-02T02:27:44;99338.47;;;10.75;100.00
17230;BME280;8731;50.364;8.958;2023-04-02T02:32:18;99337.06;;;10.79;100.00
17230;BME280;8731;50.364;8.958;2023-04-02T02:36:48;99349.19;;;10.71;100.00
17230;BME280;8731;50.364;8.958;2023-04-02T02:41:23;99350.31;;;10.75;100.00
17230;BME280;8731;50.364;8.958;2023-04-02T02:45:52;99360.63;;;10.76;100.00
17230;BME280;8731;50.364;8.958;2023-04-02T02:50:21;99367.16;;;10.63;100.00
17230;BME280;8731;50.364;8.958;2023-04-02T02:54:49;99367.81;;;10.60;100.00
17230;BME280;8731;50.364;8.958;2023-04-02T02:59:19;99383.59;;;10.66;100.00
17230;BME280;8731;50.364;8.958;2023-04-02T03:03:44;99380.19;;;10.56;100.00
17230;BME280;8731;50.364;8.958;2023-04-02T03:08:15;99385.50;;;10.59;100.00
17230;BME280;8731;50.364;8.958;2023-04-02T03:12:50;99391.81;;;10.42;100.00
17230;BME280;8731;50.364;8.958;2023-04-02T03:17:23;99408.59;;;10.40;100.00
17230;BME280;8731;50.364;8.958;2023-04-02T03:21:54;99416.25;;;10.30;100.00
17230;BME280;8731;50.364;8.958;2023-04-02T03:26:26;99415.09;;;10.36;100.00
17230;BME280;8731;50.364;8.958;2023-04-02T03:30:57;99425.03;;;10.43;100.00
17230;BME280;8731;50.364;8.958;2023-04-02T03:35:28;99430.91;;;10.22;100.00
17230;BME280;8731;50.364;8.958;2023-04-02T03:39:57;99443.84;;;10.45;100.00
17230;BME280;8731;50.364;8.958;2023-04-02T03:44:29;99441.28;;;10.45;100.00
17230;BME280;8731;50.364;8.958;2023-04-02T03:48:58;99447.88;;;10.54;100.00
17230;BME280;8731;50.364;8.958;2023-04-02T03:53:26;99454.22;;;10.59;100.00
17230;BME280;8731;50.364;8.958;2023-04-02T03:57:57;99458.56;;;10.60;100.00
17230;BME280;8731;50.364;8.958;2023-04-02T04:02:34;99461.47;;;10.64;100.00
17230;BME280;8731;50.364;8.958;2023-04-02T04:07:02;99474.34;;;10.66;100.00
17230;BME280;8731;50.364;8.958;2023-04-02T04:11:29;99481.47;;;10.70;100.00
17230;BME280;8731;50.364;8.958;2023-04-02T04:15:58;99479.91;;;10.72;100.00
17230;BME280;8731;50.364;8.958;2023-04-02T04:20:28;99489.09;;;10.70;100.00
17230;BME280;8731;50.364;8.958;2023-04-02T04:24:55;99500.53;;;10.75;100.00
17230;BME280;8731;50.364;8.958;2023-04-02T04:29:32;99500.53;;;10.75;100.00
17230;BME280;8731;50.364;8.958;2023-04-02T04:34:10;99510.72;;;10.75;100.00
17230;BME280;8731;50.364;8.958;2023-04-02T04:38:39;99510.84;;;10.76;100.00
17230;BME280;8731;50.364;8.958;2023-04-02T04:43:14;99524.69;;;10.80;100.00
17230;BME280;8731;50.364;8.958;2023-04-02T04:47:47;99525.34;;;10.77;100.00
17230;BME280;8731;50.364;8.958;2023-04-02T04:52:18;99533.63;;;10.75;100.00
17230;BME280;8731;50.364;8.958;2023-04-02T04:56:46;99538.72;;;10.75;100.00
17230;BME280;8731;50.364;8.958;2023-04-02T05:01:16;99548.38;;;10.79;100.00
17230;BME280;8731;50.364;8.958;2023-04-02T05:05:45;99550.84;;;10.57;100.00
17230;BME280;8731;50.364;8.958;2023-04-02T05:10:15;99565.84;;;10.34;100.00
17230;BME280;8731;50.364;8.958;2023-04-02T05:14:48;99586.28;;;10.15;100.00
17230;BME280;8731;50.364;8.958;2023-04-02T05:19:18;99597.78;;;9.81;100.00
17230;BME280;8731;50.364;8.958;2023-04-02T05:23:50;99606.94;;;9.79;100.00
17230;BME280;8731;50.364;8.958;2023-04-02T05:28:21;99618.38;;;9.84;100.00
17230;BME280;8731;50.364;8.958;2023-04-02T05:32:53;99625.38;;;9.87;98.22
17230;BME280;8731;50.364;8.958;2023-04-02T05:37:24;99634.66;;;9.47;96.42
17230;BME280;8731;50.364;8.958;2023-04-02T05:41:58;99643.38;;;9.21;95.49
17230;BME280;8731;50.364;8.958;2023-04-02T05:46:43;99649.81;;;9.37;96.36
17230;BME280;8731;50.364;8.958;2023-04-02T05:51:15;99661.03;;;9.01;95.35
17230;BME280;8731;50.364;8.958;2023-04-02T05:55:43;99678.38;;;8.78;94.35
17230;BME280;8731;50.364;8.958;2023-04-02T06:00:19;99683.59;;;8.79;93.71
17230;BME280;8731;50.364;8.958;2023-04-02T06:04:52;99691.34;;;8.53;93.95
17230;BME280;8731;50.364;8.958;2023-04-02T06:09:32;99700.69;;;8.18;94.74
17230;BME280;8731;50.364;8.958;2023-04-02T06:14:02;99715.72;;;8.25;93.88
17230;BME280;8731;50.364;8.958;2023-04-02T06:18:28;99723.66;;;8.20;95.13
17230;BME280;8731;50.364;8.958;2023-04-02T06:22:56;99741.22;;;8.44;95.00
17230;BME280;8731;50.364;8.958;2023-04-02T06:27:25;99745.66;;;8.55;96.03
17230;BME280;8731;50.364;8.958;2023-04-02T06:31:51;99758.91;;;8.61;96.33
17230;BME280;8731;50.364;8.958;2023-04-02T06:36:19;99767.75;;;8.48;96.97
17230;BME280;8731;50.364;8.958;2023-04-02T06:40:46;99770.84;;;8.90;96.65
17230;BME280;8731;50.364;8.958;2023-04-02T06:45:28;99775.31;;;8.92;95.84
17230;BME280;8731;50.364;8.958;2023-04-02T06:50:18;99793.06;;;9.01;95.32
17230;BME280;8731;50.364;8.958;2023-04-02T06:54:49;99808.59;;;8.96;94.92
17230;BME280;8731;50.364;8.958;2023-04-02T06:59:12;99814.13;;;9.00;94.03
17230;BME280;8731;50.364;8.958;2023-04-02T07:03:35;99827.00;;;8.93;94.03
17230;BME280;8731;50.364;8.958;2023-04-02T07:08:07;99835.28;;;9.09;93.77
17230;BME280;8731;50.364;8.958;2023-04-02T07:12:32;99858.63;;;8.97;93.35
17230;BME280;8731;50.364;8.958;2023-04-02T07:16:54;99868.44;;;9.11;93.30
17230;BME280;8731;50.364;8.958;2023-04-02T07:21:19;99877.84;;;9.12;93.40
17230;BME280;8731;50.364;8.958;2023-04-02T07:25:42;99880.53;;;8.77;93.47
17230;BME280;8731;50.364;8.958;2023-04-02T07:30:08;99893.50;;;9.16;93.20
17230;BME280;8731;50.364;8.958;2023-04-02T07:34:31;99909.41;;;8.97;93.54
17230;BME280;8731;50.364;8.958;2023-04-02T07:38:53;99915.53;;;8.99;92.35
17230;BME280;8731;50.364;8.958;2023-04-02T07:43:16;99930.03;;;8.91;93.21
17230;BME280;8731;50.364;8.958;2023-04-02T07:47:41;99945.72;;;8.96;92.66
17230;BME280;8731;50.364;8.958;2023-04-02T07:52:04;99948.13;;;8.85;93.16
17230;BME280;8731;50.364;8.958;2023-04-02T07:56:26;99957.56;;;8.78;93.58
17230;BME280;8731;50.364;8.958;2023-04-02T08:00:49;99972.94;;;8.79;93.34
17230;BME280;8731;50.364;8.958;2023-04-02T08:05:13;99989.81;;;8.44;93.16
17230;BME280;8731;50.364;8.958;2023-04-02T08:09:37;100005.94;;;8.36;91.76
17230;BME280;8731;50.364;8.958;2023-04-02T08:13:59;100014.56;;;7.79;92.31
17230;BME280;8731;50.364;8.958;2023-04-02T08:18:21;100015.09;;;8.01;92.82
17230;BME280;8731;50.364;8.958;2023-04-02T08:22:45;100026.91;;;7.67;92.06
17230;BME280;8731;50.364;8.958;2023-04-02T08:27:12;100038.94;;;8.03;91.90
17230;BME280;8731;50.364;8.958;2023-04-02T08:31:35;100056.59;;;8.19;92.08
17230;BME280;8731;50.364;8.958;2023-04-02T08:35:58;100059.28;;;8.20;90.40
17230;BME280;8731;50.364;8.958;2023-04-02T08:40:25;100075.03;;;8.42;89.23
17230;BME280;8731;50.364;8.958;2023-04-02T08:44:58;100073.09;;;8.48;89.85
17230;BME280;8731;50.364;8.958;2023-04-02T08:49:30;100084.31;;;8.09;87.77
17230;BME280;8731;50.364;8.958;2023-04-02T08:53:59;100093.38;;;8.40;88.92
17230;BME280;8731;50.364;8.958;2023-04-02T08:58:38;100106.81;;;8.47;89.00
17230;BME280;8731;50.364;8.958;2023-04-02T09:03:07;100107.56;;;8.46;87.77
17230;BME280;8731;50.364;8.958;2023-04-02T09:07:35;100121.19;;;8.64;86.41
17230;BME280;8731;50.364;8.958;2023-04-02T09:11:59;100131.19;;;8.71;86.60
17230;BME280;8731;50.364;8.958;2023-04-02T09:16:36;100137.78;;;8.95;85.12
17230;BME280;8731;50.364;8.958;2023-04-02T09:21:22;100154.66;;;9.12;85.79
17230;BME280;8731;50.364;8.958;2023-04-02T09:25:54;100156.44;;;8.87;83.81
17230;BME280;8731;50.364;8.958;2023-04-02T09:30:25;100164.38;;;8.90;84.01
17230;BME280;8731;50.364;8.958;2023-04-02T09:35:10;100178.72;;;9.15;83.69
17230;BME280;8731;50.364;8.958;2023-04-02T09:39:35;100188.09;;;8.82;84.07
17230;BME280;8731;50.364;8.958;2023-04-02T09:44:17;100194.38;;;8.94;82.20
17230;BME280;8731;50.364;8.958;2023-04-02T09:48:43;100200.84;;;9.08;82.47
17230;BME280;8731;50.364;8.958;2023-04-02T09:53:26;100195.00;;;9.17;82.82
17230;BME280;8731;50.364;8.958;2023-04-02T09:58:10;100215.31;;;9.17;81.60
17230;BME280;8731;50.364;8.958;2023-04-02T10:02:36;100222.06;;;9.34;81.34
17230;BME280;8731;50.364;8.958;2023-04-02T10:06:59;100225.78;;;9.20;80.52
17230;BME280;8731;50.364;8.958;2023-04-02T10:11:27;100245.81;;;9.00;79.78
17230;BME280;8731;50.364;8.958;2023-04-02T10:15:57;100260.16;;;9.08;79.58
17230;BME280;8731;50.364;8.958;2023-04-02T10:20:25;100263.91;;;9.29;81.08
17230;BME280;8731;50.364;8.958;2023-04-02T10:24:51;100254.94;;;9.41;79.75
17230;BME280;8731;50.364;8.958;2023-04-02T10:29:29;100263.75;;;9.45;78.15
17230;BME280;8731;50.364;8.958;2023-04-02T10:34:34;100265.28;;;9.60;77.59
17230;BME280;8731;50.364;8.958;2023-04-02T10:39:06;100279.28;;;9.22;77.05
17230;BME280;8731;50.364;8.958;2023-04-02T10:43:51;100290.63;;;9.00;75.84
17230;BME280;8731;50.364;8.958;2023-04-02T10:48:37;100302.28;;;9.06;79.17
17230;BME280;8731;50.364;8.958;2023-04-02T10:53:10;100309.06;;;9.66;77.30
17230;BME280;8731;50.364;8.958;2023-04-02T10:57:38;100311.03;;;9.60;76.54
17230;BME280;8731;50.364;8.958;2023-04-02T11:02:23;100331.84;;;9.06;77.32
17230;BME280;8731;50.364;8.958;2023-04-02T11:06:55;100328.53;;;9.57;77.58
17230;BME280;8731;50.364;8.958;2023-04-02T11:11:20;100350.66;;;8.99;76.11
17230;BME280;8731;50.364;8.958;2023-04-02T11:15:46;100353.97;;;8.49;77.48
17230;BME280;8731;50.364;8.958;2023-04-02T11:25:27;100374.38;;;8.26;77.42
17230;BME280;8731;50.364;8.958;2023-04-02T11:29:51;100374.09;;;8.72;77.11
17230;BME280;8731;50.364;8.958;2023-04-02T11:44:27;100403.19;;;8.91;76.59
17230;BME280;8731;50.364;8.958;2023-04-02T11:48:49;100412.44;;;8.91;74.89
17230;BME280;8731;50.364;8.958;2023-04-02T11:53:19;100418.53;;;9.17;76.08
17230;BME280;8731;50.364;8.958;2023-04-02T11:58:00;100429.16;;;8.65;75.08
17230;BME280;8731;50.364;8.958;2023-04-02T12:02:47;100426.16;;;9.17;77.05
17230;BME280;8731;50.364;8.958;2023-04-02T12:07:51;100433.91;;;9.10;75.97
17230;BME280;8731;50.364;8.958;2023-04-02T12:12:33;100453.63;;;8.80;76.01
17230;BME280;8731;50.364;8.958;2023-04-02T12:17:03;100464.63;;;8.24;75.92
17230;BME280;8731;50.364;8.958;2023-04-02T12:21:36;100469.97;;;8.75;76.08
17230;BME280;8731;50.364;8.958;2023-04-02T12:26:00;100481.31;;;7.75;76.45
17230;BME280;8731;50.364;8.958;2023-04-02T12:30:25;100476.50;;;8.48;76.18
17230;BME280;8731;50.364;8.958;2023-04-02T12:34:50;100491.81;;;8.10;76.95
17230;BME280;8731;50.364;8.958;2023-04-02T12:39:17;100480.41;;;8.69;76.71
17230;BME280;8731;50.364;8.958;2023-04-02T12:43:39;100490.56;;;8.69;75.57
17230;BME280;8731;50.364;8.958;2023-04-02T12:48:04;100494.91;;;8.95;75.93
17230;BME280;8731;50.364;8.958;2023-04-02T12:52:28;100501.06;;;8.56;76.66
17230;BME280;8731;50.364;8.958;2023-04-02T12:56:53;100513.56;;;8.95;75.04
17230;BME280;8731;50.364;8.958;2023-04-02T13:01:35;100512.38;;;8.91;75.40
17230;BME280;8731;50.364;8.958;2023-04-02T13:05:58;100516.41;;;8.74;75.41
17230;BME280;8731;50.364;8.958;2023-04-02T13:10:23;100534.16;;;8.34;75.66
17230;BME280;8731;50.364;8.958;2023-04-02T13:14:53;100524.75;;;8.73;75.72
17230;BME280;8731;50.364;8.958;2023-04-02T13:19:23;100551.31;;;8.68;74.37
17230;BME280;8731;50.364;8.958;2023-04-02T13:23:49;100557.59;;;8.24;75.03
17230;BME280;8731;50.364;8.958;2023-04-02T13:28:11;100564.22;;;8.93;75.30
17230;BME280;8731;50.364;8.958;2023-04-02T13:32:35;100561.69;;;8.15;75.58
17230;BME280;8731;50.364;8.958;2023-04-02T13:36:58;100574.28;;;8.06;75.24
17230;BME280;8731;50.364;8.958;2023-04-02T13:41:23;100577.78;;;8.38;74.47
17230;BME280;8731;50.364;8.958;2023-04-02T13:45:49;100577.66;;;7.91;75.23
17230;BME280;8731;50.364;8.958;2023-04-02T13:50:19;100572.63;;;8.22;74.92
17230;BME280;8731;50.364;8.958;2023-04-02T13:54:44;100579.50;;;8.08;74.22
17230;BME280;8731;50.364;8.958;2023-04-02T13:59:10;100584.00;;;8.26;74.48
17230;BME280;8731;50.364;8.958;2023-04-02T14:03:33;100599.22;;;8.10;73.74
17230;BME280;8731;50.364;8.958;2023-04-02T14:08:05;100602.16;;;8.06;74.47
17230;BME280;8731;50.364;8.958;2023-04-02T14:12:43;100610.94;;;8.17;73.71
17230;BME280;8731;50.364;8.958;2023-04-02T14:17:23;100618.47;;;7.85;72.08
17230;BME280;8731;50.364;8.958;2023-04-02T14:22:03;100628.38;;;7.68;73.54
17230;BME280;8731;50.364;8.958;2023-04-02T14:26:46;100642.38;;;7.80;72.67
17230;BME280;8731;50.364;8.958;2023-04-02T14:31:23;100644.22;;;7.81;73.05
17230;BME280;8731;50.364;8.958;2023-04-02T14:35:54;100648.78;;;7.47;73.36
17230;BME280;8731;50.364;8.958;2023-04-02T14:40:24;100661.88;;;7.65;72.44
17230;BME280;8731;50.364;8.958;2023-04-02T14:44:56;100667.28;;;7.38;73.19
17230;BME280;8731;50.364;8.958;2023-04-02T14:49:24;100679.16;;;7.17;73.56
17230;BME280;8731;50.364;8.958;2023-04-02T14:53:57;100679.78;;;7.37;73.81
17230;BME280;8731;50.364;8.958;2023-04-02T14:58:25;100689.25;;;7.24;72.77
17230;BME280;8731;50.364;8.958;2023-04-02T15:02:55;100691.22;;;7.26;72.07
17230;BME280;8731;50.364;8.958;2023-04-02T15:07:27;100689.13;;;7.75;72.34
17230;BME280;8731;50.364;8.958;2023-04-02T15:11:59;100703.09;;;7.42;71.83
17230;BME280;8731;50.364;8.958;2023-04-02T15:16:27;100709.75;;;7.11;71.82
17230;BME280;8731;50.364;8.958;2023-04-02T15:21:00;100719.94;;;6.83;70.22
17230;BME280;8731;50.364;8.958;2023-04-02T15:25:36;100717.22;;;7.32;70.85
17230;BME280;8731;50.364;8.958;2023-04-02T15:30:11;100717.69;;;7.14;71.09
17230;BME280;8731;50.364;8.958;2023-04-02T15:34:41;100727.84;;;7.00;68.96
17230;BME280;8731;50.364;8.958;2023-04-02T15:39:20;100730.38;;;7.00;69.72
17230;BME280;8731;50.364;8.958;2023-04-02T15:43:56;100740.22;;;6.61;69.09
17230;BME280;8731;50.364;8.958;2023-04-02T15:48:35;100738.41;;;6.67;69.44
17230;BME280;8731;50.364;8.958;2023-04-02T15:53:38;100738.53;;;6.83;68.81
17230;BME280;8731;50.364;8.958;2023-04-02T15:58:25;100745.28;;;6.47;69.06
17230;BME280;8731;50.364;8.958;2023-04-02T16:03:17;100760.09;;;6.51;69.35
17230;BME280;8731;50.364;8.958;2023-04-02T16:08:07;100768.97;;;6.47;68.62
17230;BME280;8731;50.364;8.958;2023-04-02T16:12:39;100772.75;;;6.65;68.02
17230;BME280;8731;50.364;8.958;2023-04-02T16:17:07;100780.69;;;6.75;67.93
17230;BME280;8731;50.364;8.958;2023-04-02T16:21:38;100786.47;;;6.32;67.95
17230;BME280;8731;50.364;8.958;2023-04-02T16:26:22;100786.84;;;6.56;68.28
17230;BME280;8731;50.364;8.958;2023-04-02T16:30:57;100789.53;;;6.79;68.63
17230;BME280;8731;50.364;8.958;2023-04-02T16:35:34;100794.59;;;6.58;68.61
17230;BME280;8731;50.364;8.958;2023-04-02T16:40:10;100802.19;;;6.79;68.44
17230;BME280;8731;50.364;8.958;2023-04-02T16:44:53;100810.16;;;6.46;68.89
17230;BME280;8731;50.364;8.958;2023-04-02T16:49:29;100816.50;;;6.64;68.27
17230;BME280;8731;50.364;8.958;2023-04-02T16:54:01;100825.13;;;6.38;68.31
17230;BME280;8731;50.364;8.958;2023-04-02T16:58:39;100835.41;;;6.18;69.11
17230;BME280;8731;50.364;8.958;2023-04-02T17:03:23;100839.03;;;6.20;68.58
17230;BME280;8731;50.364;8.958;2023-04-02T17:08:19;100855.09;;;6.28;68.52
17230;BME280;8731;50.364;8.958;2023-04-02T17:12:47;100856.53;;;6.26;69.42
17230;BME280;8731;50.364;8.958;2023-04-02T17:17:16;100859.44;;;6.29;68.83
17230;BME280;8731;50.364;8.958;2023-04-02T17:21:40;100869.13;;;6.11;68.85
17230;BME280;8731;50.364;8.958;2023-04-02T17:26:08;100885.06;;;6.18;69.77
17230;BME280;8731;50.364;8.958;2023-04-02T17:30:36;100884.06;;;6.65;69.60
17230;BME280;8731;50.364;8.958;2023-04-02T17:35:15;100896.72;;;6.72;69.26
17230;BME280;8731;50.364;8.958;2023-04-02T17:39:45;100909.16;;;6.57;69.04
17230;BME280;8731;50.364;8.958;2023-04-02T17:44:26;100923.75;;;6.38;68.87
17230;BME280;8731;50.364;8.958;2023-04-02T17:49:02;100927.78;;;6.50;68.26
17230;BME280;8731;50.364;8.958;2023-04-02T17:53:58;100937.19;;;6.58;68.68
17230;BME280;8731;50.364;8.958;2023-04-02T17:58:48;100944.03;;;6.45;69.38
17230;BME280;8731;50.364;8.958;2023-04-02T18:03:40;100951.31;;;6.15;69.71
17230;BME280;8731;50.364;8.958;2023-04-02T18:08:17;100959.84;;;6.23;69.09
17230;BME280;8731;50.364;8.958;2023-04-02T18:12:54;100965.09;;;6.24;68.72
17230;BME280;8731;50.364;8.958;2023-04-02T18:17:26;100979.34;;;5.90;68.92
17230;BME280;8731;50.364;8.958;2023-04-02T18:22:01;100983.19;;;5.93;68.89
17230;BME280;8731;50.364;8.958;2023-04-02T18:26:39;100985.41;;;6.04;67.34
17230;BME280;8731;50.364;8.958;2023-04-02T18:31:12;100991.84;;;5.95;66.61
17230;BME280;8731;50.364;8.958;2023-04-02T18:35:51;101001.47;;;5.78;66.41
17230;BME280;8731;50.364;8.958;2023-04-02T18:40:32;101008.13;;;6.04;67.46
17230;BME280;8731;50.364;8.958;2023-04-02T18:45:02;101013.28;;;6.19;66.68
17230;BME280;8731;50.364;8.958;2023-04-02T18:49:38;101021.88;;;6.06;67.27
17230;BME280;8731;50.364;8.958;2023-04-02T18:54:11;101033.06;;;6.08;67.04
17230;BME280;8731;50.364;8.958;2023-04-02T18:58:41;101042.59;;;6.31;67.89
17230;BME280;8731;50.364;8.958;2023-04-02T19:03:17;101042.56;;;6.24;67.45
17230;BME280;8731;50.364;8.958;2023-04-02T19:07:47;101042.56;;;6.24;67.94
17230;BME280;8731;50.364;8.958;2023-04-02T19:12:15;101047.28;;;5.94;66.51
17230;BME280;8731;50.364;8.958;2023-04-02T19:16:58;101047.16;;;6.06;67.86
17230;BME280;8731;50.364;8.958;2023-04-02T19:21:33;101044.34;;;6.18;67.07
17230;BME280;8731;50.364;8.958;2023-04-02T19:26:00;101051.34;;;6.13;67.83
17230;BME280;8731;50.364;8.958;2023-04-02T19:30:40;101060.81;;;5.94;68.51
17230;BME280;8731;50.364;8.958;2023-04-02T19:35:19;101064.09;;;6.00;67.49
17230;BME280;8731;50.364;8.958;2023-04-02T19:40:15;101071.25;;;5.70;67.41
17230;BME280;8731;50.364;8.958;2023-04-02T19:44:45;101074.88;;;5.72;67.28
17230;BME280;8731;50.364;8.958;2023-04-02T19:49:13;101082.97;;;5.70;67.72
17230;BME280;8731;50.364;8.958;2023-04-02T19:53:39;101088.41;;;5.73;67.70
17230;BME280;8731;50.364;8.958;2023-04-02T19:58:02;101087.59;;;5.67;67.76
17230;BME280;8731;50.364;8.958;2023-04-02T20:02:26;101088.75;;;5.69;67.52
17230;BME280;8731;50.364;8.958;2023-04-02T20:06:50;101100.66;;;5.70;68.88
17230;BME280;8731;50.364;8.958;2023-04-02T20:11:13;101095.13;;;5.79;68.77
17230;BME280;8731;50.364;8.958;2023-04-02T20:15:39;101096.59;;;5.84;70.09
17230;BME280;8731;50.364;8.958;2023-04-02T20:20:01;101098.59;;;5.87;70.29
17230;BME280;8731;50.364;8.958;2023-04-02T20:24:24;101105.47;;;5.88;70.64
17230;BME280;8731;50.364;8.958;2023-04-02T20:28:46;101104.06;;;5.90;71.24
17230;BME280;8731;50.364;8.958;2023-04-02T20:33:10;101108.91;;;5.89;71.45
17230;BME280;8731;50.364;8.958;2023-04-02T20:37:32;101113.78;;;5.87;71.81
17230;BME280;8731;50.364;8.958;2023-04-02T20:41:55;101119.25;;;5.90;72.62
17230;BME280;8731;50.364;8.958;2023-04-02T20:46:21;101127.97;;;5.79;72.02
17230;BME280;8731;50.364;8.958;2023-04-02T20:50:46;101129.03;;;5.94;72.07
17230;BME280;8731;50.364;8.958;2023-04-02T20:55:08;101133.06;;;5.86;73.46
17230;BME280;8731;50.364;8.958;2023-04-02T20:59:31;101138.06;;;5.92;73.36
17230;BME280;8731;50.364;8.958;2023-04-02T21:03:54;101135.75;;;5.81;73.31
17230;BME280;8731;50.364;8.958;2023-04-02T21:08:19;101139.84;;;5.73;72.62
17230;BME280;8731;50.364;8.958;2023-04-02T21:12:42;101135.56;;;5.60;73.06
17230;BME280;8731;50.364;8.958;2023-04-02T21:17:04;101155.25;;;5.62;72.93
17230;BME280;8731;50.364;8.958;2023-04-02T21:21:28;101155.63;;;5.45;73.50
17230;BME280;8731;50.364;8.958;2023-04-02T21:25:56;101149.09;;;5.60;73.74
17230;BME280;8731;50.364;8.958;2023-04-02T21:30:19;101156.47;;;5.59;73.31
17230;BME280;8731;50.364;8.958;2023-04-02T21:34:41;101165.41;;;5.49;74.17
17230;BME280;8731;50.364;8.958;2023-04-02T21:39:05;101156.41;;;5.51;75.48
17230;BME280;8731;50.364;8.958;2023-04-02T21:43:30;101147.66;;;5.62;75.82
17230;BME280;8731;50.364;8.958;2023-04-02T21:47:52;101163.47;;;5.54;76.76
17230;BME280;8731;50.364;8.958;2023-04-02T21:52:15;101160.03;;;5.53;77.01
17230;BME280;8731;50.364;8.958;2023-04-02T21:56:39;101174.44;;;5.35;77.72
17230;BME280;8731;50.364;8.958;2023-04-02T22:01:05;101173.06;;;5.24;79.50
17230;BME280;8731;50.364;8.958;2023-04-02T22:05:28;101178.31;;;5.26;78.78
17230;BME280;8731;50.364;8.958;2023-04-02T22:09:51;101179.56;;;5.42;78.07
17230;BME280;8731;50.364;8.958;2023-04-02T22:14:15;101184.03;;;5.37;78.55
17230;BME280;8731;50.364;8.958;2023-04-02T22:18:40;101183.56;;;5.27;78.95
17230;BME280;8731;50.364;8.958;2023-04-02T22:23:03;101181.88;;;5.40;78.94
17230;BME280;8731;50.364;8.958;2023-04-02T22:27:26;101187.31;;;5.23;78.56
17230;BME280;8731;50.364;8.958;2023-04-02T22:31:48;101186.56;;;5.37;79.21
17230;BME280;8731;50.364;8.958;2023-04-02T22:36:13;101181.81;;;5.33;79.45
17230;BME280;8731;50.364;8.958;2023-04-02T22:40:36;101184.09;;;5.24;77.71
17230;BME280;8731;50.364;8.958;2023-04-02T22:44:58;101186.41;;;5.23;77.80
17230;BME280;8731;50.364;8.958;2023-04-02T22:49:23;101187.75;;;5.01;78.19
17230;BME280;8731;50.364;8.958;2023-04-02T22:53:51;101191.59;;;5.05;78.39
17230;BME280;8731;50.364;8.958;2023-04-02T22:58:16;101190.03;;;5.25;78.08
17230;BME280;8731;50.364;8.958;2023-04-02T23:02:41;101188.63;;;5.14;77.70
17230;BME280;8731;50.364;8.958;2023-04-02T23:07:03;101189.44;;;5.20;77.71
17230;BME280;8731;50.364;8.958;2023-04-02T23:11:29;101198.25;;;4.91;77.83
17230;BME280;8731;50.364;8.958;2023-04-02T23:15:51;101199.97;;;4.98;78.21
17230;BME280;8731;50.364;8.958;2023-04-02T23:20:14;101202.97;;;4.96;77.63
17230;BME280;8731;50.364;8.958;2023-04-02T23:24:41;101205.31;;;4.94;77.88
17230;BME280;8731;50.364;8.958;2023-04-02T23:29:05;101205.50;;;4.96;77.79
17230;BME280;8731;50.364;8.958;2023-04-02T23:33:28;101199.44;;;5.13;78.35
17230;BME280;8731;50.364;8.958;2023-04-02T23:37:50;101199.03;;;5.10;77.45
17230;BME280;8731;50.364;8.958;2023-04-02T23:42:13;101197.81;;;5.14;79.11
17230;BME280;8731;50.364;8.958;2023-04-02T23:46:38;101190.88;;;4.93;79.54
17230;BME280;8731;50.364;8.958;2023-04-02T23:51:00;101198.66;;;5.07;79.34
17230;BME280;8731;50.364;8.958;2023-04-02T23:55:23;101191.34;;;5.16;78.16
17230;BME280;8731;50.364;8.958;2023-04-02T23:59:45;101196.25;;;5.02;78.68
